sensor_id;sensor_type;location;lat;lon;timestamp;P1;durP1;ratioP1;P2;durP2;ratioP2
75486;SDS011;65009;44.762;21.516;2022-12-18T00:01:59;89.60;;;47.43;;
75486;SDS011;65009;44.762;21.516;2022-12-18T00:04:26;82.37;;;45.47;;
75486;SDS011;65009;44.762;21.516;2022-12-18T00:06:52;83.13;;;45.87;;
75486;SDS011;65009;44.762;21.516;2022-12-18T00:09:19;77.73;;;42.77;;
75486;SDS011;65009;44.762;21.516;2022-12-18T00:11:45;76.00;;;42.57;;
75486;SDS011;65009;44.762;21.516;2022-12-18T00:14:12;76.50;;;39.37;;
75486;SDS011;65009;44.762;21.516;2022-12-18T00:16:38;70.10;;;37.43;;
75486;SDS011;65009;44.762;21.516;2022-12-18T00:19:05;70.03;;;37.43;;
75486;SDS011;65009;44.762;21.516;2022-12-18T00:21:32;70.80;;;37.70;;
75486;SDS011;65009;44.762;21.516;2022-12-18T00:23:58;68.33;;;36.43;;
75486;SDS011;65009;44.762;21.516;2022-12-18T00:26:25;72.97;;;37.97;;
75486;SDS011;65009;44.762;21.516;2022-12-18T00:28:52;70.03;;;38.70;;
75486;SDS011;65009;44.762;21.516;2022-12-18T00:31:19;78.47;;;40.27;;
75486;SDS011;65009;44.762;21.516;2022-12-18T00:33:46;72.97;;;39.23;;
75486;SDS011;65009;44.762;21.516;2022-12-18T00:36:16;69.77;;;37.37;;
75486;SDS011;65009;44.762;21.516;2022-12-18T00:38:42;70.20;;;36.57;;
75486;SDS011;65009;44.762;21.516;2022-12-18T00:41:09;76.33;;;38.60;;
75486;SDS011;65009;44.762;21.516;2022-12-18T00:43:36;67.87;;;36.47;;
75486;SDS011;65009;44.762;21.516;2022-12-18T00:46:02;72.70;;;39.10;;
75486;SDS011;65009;44.762;21.516;2022-12-18T00:48:29;68.13;;;36.00;;
75486;SDS011;65009;44.762;21.516;2022-12-18T00:50:55;66.90;;;33.60;;
75486;SDS011;65009;44.762;21.516;2022-12-18T00:53:21;70.43;;;36.23;;
75486;SDS011;65009;44.762;21.516;2022-12-18T00:55:50;61.37;;;31.43;;
75486;SDS011;65009;44.762;21.516;2022-12-18T00:58:17;70.93;;;35.83;;
75486;SDS011;65009;44.762;21.516;2022-12-18T01:00:43;68.73;;;34.23;;
75486;SDS011;65009;44.762;21.516;2022-12-18T01:03:09;69.90;;;35.47;;
75486;SDS011;65009;44.762;21.516;2022-12-18T01:05:38;68.70;;;36.33;;
75486;SDS011;65009;44.762;21.516;2022-12-18T01:08:04;67.80;;;34.93;;
75486;SDS011;65009;44.762;21.516;2022-12-18T01:10:30;63.23;;;33.70;;
75486;SDS011;65009;44.762;21.516;2022-12-18T01:12:56;73.17;;;36.10;;
75486;SDS011;65009;44.762;21.516;2022-12-18T01:15:22;65.77;;;35.10;;
75486;SDS011;65009;44.762;21.516;2022-12-18T01:17:49;67.60;;;33.73;;
75486;SDS011;65009;44.762;21.516;2022-12-18T01:20:17;64.27;;;35.87;;
75486;SDS011;65009;44.762;21.516;2022-12-18T01:22:43;70.83;;;36.27;;
75486;SDS011;65009;44.762;21.516;2022-12-18T01:25:09;68.53;;;34.50;;
75486;SDS011;65009;44.762;21.516;2022-12-18T01:27:36;70.43;;;35.27;;
75486;SDS011;65009;44.762;21.516;2022-12-18T01:30:02;65.23;;;33.40;;
75486;SDS011;65009;44.762;21.516;2022-12-18T01:32:31;62.97;;;33.17;;
75486;SDS011;65009;44.762;21.516;2022-12-18T01:34:57;57.73;;;31.70;;
75486;SDS011;65009;44.762;21.516;2022-12-18T01:37:24;65.03;;;32.67;;
75486;SDS011;65009;44.762;21.516;2022-12-18T01:39:50;62.40;;;33.40;;
75486;SDS011;65009;44.762;21.516;2022-12-18T01:42:17;62.37;;;33.43;;
75486;SDS011;65009;44.762;21.516;2022-12-18T01:47:35;64.07;;;32.90;;
75486;SDS011;65009;44.762;21.516;2022-12-18T01:49:59;59.73;;;32.20;;
75486;SDS011;65009;44.762;21.516;2022-12-18T01:52:27;64.40;;;33.33;;
75486;SDS011;65009;44.762;21.516;2022-12-18T01:54:54;62.67;;;31.00;;
75486;SDS011;65009;44.762;21.516;2022-12-18T01:57:21;60.60;;;31.87;;
75486;SDS011;65009;44.762;21.516;2022-12-18T01:59:49;64.53;;;31.70;;
75486;SDS011;65009;44.762;21.516;2022-12-18T02:02:16;61.43;;;32.00;;
75486;SDS011;65009;44.762;21.516;2022-12-18T02:04:43;63.60;;;31.83;;
75486;SDS011;65009;44.762;21.516;2022-12-18T02:07:16;63.30;;;32.53;;
75486;SDS011;65009;44.762;21.516;2022-12-18T02:10:26;66.43;;;32.30;;
75486;SDS011;65009;44.762;21.516;2022-12-18T02:12:59;74.10;;;36.97;;
75486;SDS011;65009;44.762;21.516;2022-12-18T02:18:37;74.50;;;38.00;;
75486;SDS011;65009;44.762;21.516;2022-12-18T02:28:23;81.37;;;39.47;;
75486;SDS011;65009;44.762;21.516;2022-12-18T02:30:52;67.77;;;34.20;;
75486;SDS011;65009;44.762;21.516;2022-12-18T02:33:19;70.87;;;36.17;;
75486;SDS011;65009;44.762;21.516;2022-12-18T02:35:49;66.03;;;33.17;;
75486;SDS011;65009;44.762;21.516;2022-12-18T02:38:17;63.67;;;32.60;;
75486;SDS011;65009;44.762;21.516;2022-12-18T02:40:43;71.40;;;34.50;;
75486;SDS011;65009;44.762;21.516;2022-12-18T02:43:11;70.50;;;32.83;;
75486;SDS011;65009;44.762;21.516;2022-12-18T02:45:47;67.73;;;32.33;;
75486;SDS011;65009;44.762;21.516;2022-12-18T02:48:14;64.13;;;32.00;;
75486;SDS011;65009;44.762;21.516;2022-12-18T02:50:45;65.57;;;31.83;;
75486;SDS011;65009;44.762;21.516;2022-12-18T02:58:18;65.13;;;31.27;;
75486;SDS011;65009;44.762;21.516;2022-12-18T03:00:53;64.60;;;31.90;;
75486;SDS011;65009;44.762;21.516;2022-12-18T03:03:27;61.00;;;31.10;;
75486;SDS011;65009;44.762;21.516;2022-12-18T03:06:17;64.43;;;31.90;;
75486;SDS011;65009;44.762;21.516;2022-12-18T03:08:45;68.37;;;34.47;;
75486;SDS011;65009;44.762;21.516;2022-12-18T03:11:13;66.80;;;32.83;;
75486;SDS011;65009;44.762;21.516;2022-12-18T03:13:47;64.37;;;30.57;;
75486;SDS011;65009;44.762;21.516;2022-12-18T03:16:16;59.70;;;30.70;;
75486;SDS011;65009;44.762;21.516;2022-12-18T03:18:57;64.33;;;30.17;;
75486;SDS011;65009;44.762;21.516;2022-12-18T03:21:36;61.13;;;30.57;;
75486;SDS011;65009;44.762;21.516;2022-12-18T03:24:05;61.43;;;29.93;;
75486;SDS011;65009;44.762;21.516;2022-12-18T03:26:32;60.30;;;29.67;;
75486;SDS011;65009;44.762;21.516;2022-12-18T03:28:59;62.37;;;29.90;;
75486;SDS011;65009;44.762;21.516;2022-12-18T03:31:26;62.07;;;29.03;;
75486;SDS011;65009;44.762;21.516;2022-12-18T03:33:54;61.27;;;28.83;;
75486;SDS011;65009;44.762;21.516;2022-12-18T03:36:21;62.70;;;28.90;;
75486;SDS011;65009;44.762;21.516;2022-12-18T03:38:48;59.17;;;29.43;;
75486;SDS011;65009;44.762;21.516;2022-12-18T03:43:51;62.30;;;30.20;;
75486;SDS011;65009;44.762;21.516;2022-12-18T03:46:40;61.83;;;30.20;;
75486;SDS011;65009;44.762;21.516;2022-12-18T03:54:24;62.93;;;31.13;;
75486;SDS011;65009;44.762;21.516;2022-12-18T03:56:56;62.27;;;31.27;;
75486;SDS011;65009;44.762;21.516;2022-12-18T03:59:24;64.57;;;31.80;;
75486;SDS011;65009;44.762;21.516;2022-12-18T04:01:51;60.30;;;29.73;;
75486;SDS011;65009;44.762;21.516;2022-12-18T04:04:18;60.60;;;28.67;;
75486;SDS011;65009;44.762;21.516;2022-12-18T04:06:45;68.33;;;32.83;;
75486;SDS011;65009;44.762;21.516;2022-12-18T04:09:12;67.77;;;32.17;;
75486;SDS011;65009;44.762;21.516;2022-12-18T04:11:39;67.03;;;32.17;;
75486;SDS011;65009;44.762;21.516;2022-12-18T04:14:05;65.30;;;31.57;;
75486;SDS011;65009;44.762;21.516;2022-12-18T04:16:31;66.20;;;30.83;;
75486;SDS011;65009;44.762;21.516;2022-12-18T04:18:57;63.70;;;30.53;;
75486;SDS011;65009;44.762;21.516;2022-12-18T04:21:24;64.87;;;31.47;;
75486;SDS011;65009;44.762;21.516;2022-12-18T04:23:50;64.20;;;31.80;;
75486;SDS011;65009;44.762;21.516;2022-12-18T04:26:16;69.67;;;30.50;;
75486;SDS011;65009;44.762;21.516;2022-12-18T04:28:42;64.00;;;30.27;;
75486;SDS011;65009;44.762;21.516;2022-12-18T04:31:08;61.23;;;29.80;;
75486;SDS011;65009;44.762;21.516;2022-12-18T04:33:34;60.73;;;30.13;;
75486;SDS011;65009;44.762;21.516;2022-12-18T04:36:00;67.40;;;31.27;;
75486;SDS011;65009;44.762;21.516;2022-12-18T04:38:27;63.20;;;31.53;;
75486;SDS011;65009;44.762;21.516;2022-12-18T04:40:53;59.13;;;28.50;;
75486;SDS011;65009;44.762;21.516;2022-12-18T04:43:19;63.73;;;31.13;;
75486;SDS011;65009;44.762;21.516;2022-12-18T04:45:45;61.63;;;29.70;;
75486;SDS011;65009;44.762;21.516;2022-12-18T04:48:11;66.70;;;31.07;;
75486;SDS011;65009;44.762;21.516;2022-12-18T04:50:38;63.00;;;29.80;;
75486;SDS011;65009;44.762;21.516;2022-12-18T04:53:04;65.87;;;31.63;;
75486;SDS011;65009;44.762;21.516;2022-12-18T04:55:30;59.33;;;29.70;;
75486;SDS011;65009;44.762;21.516;2022-12-18T04:57:56;61.50;;;30.47;;
75486;SDS011;65009;44.762;21.516;2022-12-18T05:00:22;65.17;;;33.33;;
75486;SDS011;65009;44.762;21.516;2022-12-18T05:02:49;63.23;;;31.47;;
75486;SDS011;65009;44.762;21.516;2022-12-18T05:05:15;60.60;;;29.93;;
75486;SDS011;65009;44.762;21.516;2022-12-18T05:07:41;64.43;;;30.63;;
75486;SDS011;65009;44.762;21.516;2022-12-18T05:10:07;64.90;;;31.07;;
75486;SDS011;65009;44.762;21.516;2022-12-18T05:12:34;62.30;;;29.67;;
75486;SDS011;65009;44.762;21.516;2022-12-18T05:15:20;61.43;;;29.20;;
75486;SDS011;65009;44.762;21.516;2022-12-18T05:17:46;64.17;;;30.17;;
75486;SDS011;65009;44.762;21.516;2022-12-18T05:20:12;67.43;;;31.53;;
75486;SDS011;65009;44.762;21.516;2022-12-18T05:22:38;62.47;;;30.20;;
75486;SDS011;65009;44.762;21.516;2022-12-18T05:25:05;65.57;;;31.43;;
75486;SDS011;65009;44.762;21.516;2022-12-18T05:27:31;64.07;;;30.47;;
75486;SDS011;65009;44.762;21.516;2022-12-18T05:29:57;62.47;;;29.47;;
75486;SDS011;65009;44.762;21.516;2022-12-18T05:32:23;64.23;;;30.83;;
75486;SDS011;65009;44.762;21.516;2022-12-18T05:34:49;64.03;;;30.80;;
75486;SDS011;65009;44.762;21.516;2022-12-18T05:37:15;59.13;;;27.60;;
75486;SDS011;65009;44.762;21.516;2022-12-18T05:39:42;63.73;;;29.07;;
75486;SDS011;65009;44.762;21.516;2022-12-18T05:42:08;61.90;;;30.40;;
75486;SDS011;65009;44.762;21.516;2022-12-18T05:44:34;67.77;;;31.07;;
75486;SDS011;65009;44.762;21.516;2022-12-18T05:47:01;61.57;;;30.27;;
75486;SDS011;65009;44.762;21.516;2022-12-18T05:49:27;64.60;;;29.67;;
75486;SDS011;65009;44.762;21.516;2022-12-18T05:51:53;61.00;;;29.10;;
75486;SDS011;65009;44.762;21.516;2022-12-18T05:54:19;65.60;;;30.40;;
75486;SDS011;65009;44.762;21.516;2022-12-18T05:56:45;61.73;;;28.80;;
75486;SDS011;65009;44.762;21.516;2022-12-18T05:59:11;68.27;;;30.10;;
75486;SDS011;65009;44.762;21.516;2022-12-18T06:01:37;62.73;;;30.37;;
75486;SDS011;65009;44.762;21.516;2022-12-18T06:04:03;61.83;;;30.70;;
75486;SDS011;65009;44.762;21.516;2022-12-18T06:06:30;70.23;;;33.30;;
75486;SDS011;65009;44.762;21.516;2022-12-18T06:08:56;65.47;;;31.57;;
75486;SDS011;65009;44.762;21.516;2022-12-18T06:11:23;64.90;;;29.90;;
75486;SDS011;65009;44.762;21.516;2022-12-18T06:13:50;62.90;;;30.90;;
75486;SDS011;65009;44.762;21.516;2022-12-18T06:16:17;67.47;;;31.60;;
75486;SDS011;65009;44.762;21.516;2022-12-18T06:18:43;62.80;;;30.23;;
75486;SDS011;65009;44.762;21.516;2022-12-18T06:21:09;67.23;;;32.13;;
75486;SDS011;65009;44.762;21.516;2022-12-18T06:23:35;72.80;;;33.77;;
75486;SDS011;65009;44.762;21.516;2022-12-18T06:26:06;75.03;;;36.03;;
75486;SDS011;65009;44.762;21.516;2022-12-18T06:28:32;78.27;;;37.43;;
75486;SDS011;65009;44.762;21.516;2022-12-18T06:30:58;76.13;;;36.30;;
75486;SDS011;65009;44.762;21.516;2022-12-18T06:33:28;81.07;;;36.63;;
75486;SDS011;65009;44.762;21.516;2022-12-18T06:35:54;74.57;;;34.00;;
75486;SDS011;65009;44.762;21.516;2022-12-18T06:38:21;114.80;;;49.63;;
75486;SDS011;65009;44.762;21.516;2022-12-18T06:40:47;96.93;;;43.30;;
75486;SDS011;65009;44.762;21.516;2022-12-18T06:43:13;72.67;;;33.73;;
75486;SDS011;65009;44.762;21.516;2022-12-18T06:45:39;74.10;;;34.77;;
75486;SDS011;65009;44.762;21.516;2022-12-18T06:48:05;67.57;;;30.87;;
75486;SDS011;65009;44.762;21.516;2022-12-18T06:50:31;68.73;;;31.20;;
75486;SDS011;65009;44.762;21.516;2022-12-18T06:52:57;66.70;;;31.63;;
75486;SDS011;65009;44.762;21.516;2022-12-18T06:55:24;69.97;;;31.83;;
75486;SDS011;65009;44.762;21.516;2022-12-18T06:57:50;68.33;;;32.50;;
75486;SDS011;65009;44.762;21.516;2022-12-18T07:00:16;82.33;;;36.47;;
75486;SDS011;65009;44.762;21.516;2022-12-18T07:02:43;72.20;;;33.07;;
75486;SDS011;65009;44.762;21.516;2022-12-18T07:05:10;67.13;;;32.33;;
75486;SDS011;65009;44.762;21.516;2022-12-18T07:07:36;86.90;;;37.97;;
75486;SDS011;65009;44.762;21.516;2022-12-18T07:10:03;83.63;;;38.70;;
75486;SDS011;65009;44.762;21.516;2022-12-18T07:12:29;91.13;;;38.73;;
75486;SDS011;65009;44.762;21.516;2022-12-18T07:14:55;75.93;;;34.30;;
75486;SDS011;65009;44.762;21.516;2022-12-18T07:17:21;75.40;;;34.73;;
75486;SDS011;65009;44.762;21.516;2022-12-18T07:19:47;70.83;;;33.53;;
75486;SDS011;65009;44.762;21.516;2022-12-18T07:22:14;72.93;;;33.40;;
75486;SDS011;65009;44.762;21.516;2022-12-18T07:24:40;78.97;;;37.57;;
75486;SDS011;65009;44.762;21.516;2022-12-18T07:27:06;78.00;;;36.93;;
75486;SDS011;65009;44.762;21.516;2022-12-18T07:29:32;79.13;;;37.00;;
75486;SDS011;65009;44.762;21.516;2022-12-18T07:31:58;76.37;;;34.67;;
75486;SDS011;65009;44.762;21.516;2022-12-18T07:34:24;70.23;;;34.00;;
75486;SDS011;65009;44.762;21.516;2022-12-18T07:36:50;66.83;;;31.90;;
75486;SDS011;65009;44.762;21.516;2022-12-18T07:39:16;70.73;;;33.33;;
75486;SDS011;65009;44.762;21.516;2022-12-18T07:41:43;76.53;;;34.27;;
75486;SDS011;65009;44.762;21.516;2022-12-18T07:44:29;70.97;;;32.57;;
75486;SDS011;65009;44.762;21.516;2022-12-18T07:46:55;70.23;;;33.67;;
75486;SDS011;65009;44.762;21.516;2022-12-18T07:49:21;70.17;;;32.90;;
75486;SDS011;65009;44.762;21.516;2022-12-18T07:51:47;68.03;;;32.83;;
75486;SDS011;65009;44.762;21.516;2022-12-18T07:54:14;70.47;;;33.47;;
75486;SDS011;65009;44.762;21.516;2022-12-18T07:56:40;71.00;;;34.57;;
75486;SDS011;65009;44.762;21.516;2022-12-18T07:59:06;94.03;;;43.33;;
75486;SDS011;65009;44.762;21.516;2022-12-18T08:01:33;88.13;;;41.70;;
75486;SDS011;65009;44.762;21.516;2022-12-18T08:03:59;86.30;;;39.97;;
75486;SDS011;65009;44.762;21.516;2022-12-18T08:06:25;88.13;;;40.97;;
75486;SDS011;65009;44.762;21.516;2022-12-18T08:08:52;73.03;;;36.87;;
75486;SDS011;65009;44.762;21.516;2022-12-18T08:11:18;70.60;;;33.87;;
75486;SDS011;65009;44.762;21.516;2022-12-18T08:13:44;62.73;;;32.10;;
75486;SDS011;65009;44.762;21.516;2022-12-18T08:16:10;62.83;;;32.70;;
75486;SDS011;65009;44.762;21.516;2022-12-18T08:18:37;63.43;;;31.60;;
75486;SDS011;65009;44.762;21.516;2022-12-18T08:21:13;67.63;;;33.50;;
75486;SDS011;65009;44.762;21.516;2022-12-18T08:23:40;63.80;;;32.93;;
75486;SDS011;65009;44.762;21.516;2022-12-18T08:26:06;65.77;;;33.40;;
75486;SDS011;65009;44.762;21.516;2022-12-18T08:28:33;62.03;;;32.20;;
75486;SDS011;65009;44.762;21.516;2022-12-18T08:30:59;65.77;;;33.77;;
75486;SDS011;65009;44.762;21.516;2022-12-18T08:33:25;65.37;;;33.50;;
75486;SDS011;65009;44.762;21.516;2022-12-18T08:35:51;63.43;;;33.07;;
75486;SDS011;65009;44.762;21.516;2022-12-18T08:38:18;64.20;;;33.13;;
75486;SDS011;65009;44.762;21.516;2022-12-18T08:40:45;59.70;;;30.77;;
75486;SDS011;65009;44.762;21.516;2022-12-18T08:43:11;58.83;;;31.10;;
75486;SDS011;65009;44.762;21.516;2022-12-18T08:45:56;63.43;;;32.67;;
75486;SDS011;65009;44.762;21.516;2022-12-18T08:48:22;60.63;;;31.97;;
75486;SDS011;65009;44.762;21.516;2022-12-18T08:50:55;66.37;;;34.03;;
75486;SDS011;65009;44.762;21.516;2022-12-18T08:53:21;69.83;;;36.87;;
75486;SDS011;65009;44.762;21.516;2022-12-18T08:55:51;76.50;;;37.93;;
75486;SDS011;65009;44.762;21.516;2022-12-18T08:58:17;67.23;;;33.53;;
75486;SDS011;65009;44.762;21.516;2022-12-18T09:00:43;64.07;;;31.90;;
75486;SDS011;65009;44.762;21.516;2022-12-18T09:03:13;65.97;;;33.60;;
75486;SDS011;65009;44.762;21.516;2022-12-18T09:05:39;82.60;;;39.33;;
75486;SDS011;65009;44.762;21.516;2022-12-18T09:08:05;77.57;;;37.87;;
75486;SDS011;65009;44.762;21.516;2022-12-18T09:10:31;80.53;;;39.43;;
75486;SDS011;65009;44.762;21.516;2022-12-18T09:12:58;80.20;;;38.43;;
75486;SDS011;65009;44.762;21.516;2022-12-18T09:15:24;74.07;;;37.17;;
75486;SDS011;65009;44.762;21.516;2022-12-18T09:17:50;78.87;;;37.23;;
75486;SDS011;65009;44.762;21.516;2022-12-18T09:20:18;72.97;;;36.57;;
75486;SDS011;65009;44.762;21.516;2022-12-18T09:22:44;69.03;;;32.27;;
75486;SDS011;65009;44.762;21.516;2022-12-18T09:25:10;66.63;;;32.67;;
75486;SDS011;65009;44.762;21.516;2022-12-18T09:27:37;63.30;;;31.17;;
75486;SDS011;65009;44.762;21.516;2022-12-18T09:30:04;62.63;;;32.00;;
75486;SDS011;65009;44.762;21.516;2022-12-18T09:32:31;68.20;;;33.30;;
75486;SDS011;65009;44.762;21.516;2022-12-18T09:34:57;67.20;;;33.57;;
75486;SDS011;65009;44.762;21.516;2022-12-18T09:37:23;79.13;;;37.47;;
75486;SDS011;65009;44.762;21.516;2022-12-18T09:39:49;75.33;;;35.20;;
75486;SDS011;65009;44.762;21.516;2022-12-18T09:42:20;71.37;;;33.43;;
75486;SDS011;65009;44.762;21.516;2022-12-18T09:44:53;72.93;;;35.77;;
75486;SDS011;65009;44.762;21.516;2022-12-18T09:47:27;74.20;;;37.60;;
75486;SDS011;65009;44.762;21.516;2022-12-18T09:50:05;79.07;;;40.80;;
75486;SDS011;65009;44.762;21.516;2022-12-18T09:52:41;93.13;;;47.13;;
75486;SDS011;65009;44.762;21.516;2022-12-18T09:55:23;80.20;;;40.33;;
75486;SDS011;65009;44.762;21.516;2022-12-18T09:57:55;70.03;;;33.25;;
75486;SDS011;65009;44.762;21.516;2022-12-18T10:00:23;67.40;;;32.37;;
75486;SDS011;65009;44.762;21.516;2022-12-18T10:02:51;67.13;;;33.23;;
75486;SDS011;65009;44.762;21.516;2022-12-18T10:05:27;65.37;;;32.37;;
75486;SDS011;65009;44.762;21.516;2022-12-18T10:08:05;77.40;;;38.20;;
75486;SDS011;65009;44.762;21.516;2022-12-18T10:16:23;73.67;;;35.63;;
75486;SDS011;65009;44.762;21.516;2022-12-18T10:21:15;73.80;;;35.50;;
75486;SDS011;65009;44.762;21.516;2022-12-18T10:26:10;71.40;;;32.57;;
75486;SDS011;65009;44.762;21.516;2022-12-18T10:28:40;77.40;;;36.47;;
75486;SDS011;65009;44.762;21.516;2022-12-18T10:31:07;67.67;;;34.70;;
75486;SDS011;65009;44.762;21.516;2022-12-18T10:33:39;78.03;;;37.83;;
75486;SDS011;65009;44.762;21.516;2022-12-18T10:36:06;79.87;;;38.53;;
75486;SDS011;65009;44.762;21.516;2022-12-18T10:38:32;73.93;;;35.17;;
75486;SDS011;65009;44.762;21.516;2022-12-18T10:41:00;74.43;;;36.23;;
75486;SDS011;65009;44.762;21.516;2022-12-18T10:46:00;70.33;;;34.00;;
75486;SDS011;65009;44.762;21.516;2022-12-18T10:48:27;66.13;;;33.23;;
75486;SDS011;65009;44.762;21.516;2022-12-18T10:50:54;69.57;;;33.23;;
75486;SDS011;65009;44.762;21.516;2022-12-18T10:53:24;70.10;;;32.13;;
75486;SDS011;65009;44.762;21.516;2022-12-18T10:55:52;63.17;;;32.10;;
75486;SDS011;65009;44.762;21.516;2022-12-18T11:01:08;74.03;;;36.37;;
75486;SDS011;65009;44.762;21.516;2022-12-18T11:06:05;73.43;;;35.77;;
75486;SDS011;65009;44.762;21.516;2022-12-18T11:08:31;69.67;;;34.47;;
75486;SDS011;65009;44.762;21.516;2022-12-18T11:10:57;70.40;;;32.83;;
75486;SDS011;65009;44.762;21.516;2022-12-18T11:13:25;73.47;;;34.70;;
75486;SDS011;65009;44.762;21.516;2022-12-18T11:15:52;70.00;;;33.23;;
75486;SDS011;65009;44.762;21.516;2022-12-18T11:20:51;68.43;;;30.50;;
75486;SDS011;65009;44.762;21.516;2022-12-18T11:23:18;65.30;;;32.37;;
75486;SDS011;65009;44.762;21.516;2022-12-18T11:25:51;70.03;;;33.83;;
75486;SDS011;65009;44.762;21.516;2022-12-18T11:31:16;67.30;;;31.63;;
75486;SDS011;65009;44.762;21.516;2022-12-18T11:36:32;67.47;;;32.70;;
75486;SDS011;65009;44.762;21.516;2022-12-18T11:39:02;58.20;;;29.38;;
75486;SDS011;65009;44.762;21.516;2022-12-18T11:41:41;61.47;;;30.33;;
75486;SDS011;65009;44.762;21.516;2022-12-18T11:44:29;67.10;;;29.70;;
75486;SDS011;65009;44.762;21.516;2022-12-18T11:47:03;68.57;;;32.70;;
75486;SDS011;65009;44.762;21.516;2022-12-18T11:51:58;71.27;;;34.67;;
75486;SDS011;65009;44.762;21.516;2022-12-18T11:54:26;62.60;;;31.03;;
75486;SDS011;65009;44.762;21.516;2022-12-18T11:56:56;57.40;;;28.83;;
75486;SDS011;65009;44.762;21.516;2022-12-18T11:59:28;64.20;;;32.03;;
75486;SDS011;65009;44.762;21.516;2022-12-18T12:04:36;72.27;;;35.03;;
75486;SDS011;65009;44.762;21.516;2022-12-18T12:07:27;70.83;;;34.53;;
75486;SDS011;65009;44.762;21.516;2022-12-18T12:15:03;80.10;;;40.03;;
75486;SDS011;65009;44.762;21.516;2022-12-18T12:20:16;72.30;;;35.80;;
75486;SDS011;65009;44.762;21.516;2022-12-18T12:27:49;60.77;;;29.70;;
75486;SDS011;65009;44.762;21.516;2022-12-18T12:30:21;59.50;;;28.90;;
75486;SDS011;65009;44.762;21.516;2022-12-18T12:35:50;58.33;;;29.65;;
75486;SDS011;65009;44.762;21.516;2022-12-18T12:38:24;69.00;;;32.30;;
75486;SDS011;65009;44.762;21.516;2022-12-18T12:40:52;66.53;;;30.07;;
75486;SDS011;65009;44.762;21.516;2022-12-18T12:43:40;60.80;;;30.57;;
75486;SDS011;65009;44.762;21.516;2022-12-18T12:46:12;70.13;;;33.53;;
75486;SDS011;65009;44.762;21.516;2022-12-18T12:48:49;66.20;;;31.50;;
75486;SDS011;65009;44.762;21.516;2022-12-18T12:51:18;62.57;;;31.47;;
75486;SDS011;65009;44.762;21.516;2022-12-18T12:53:45;69.00;;;33.63;;
75486;SDS011;65009;44.762;21.516;2022-12-18T12:56:13;66.83;;;33.63;;
75486;SDS011;65009;44.762;21.516;2022-12-18T13:01:22;67.83;;;35.23;;
75486;SDS011;65009;44.762;21.516;2022-12-18T13:08:56;60.07;;;30.53;;
75486;SDS011;65009;44.762;21.516;2022-12-18T13:14:36;65.93;;;30.03;;
75486;SDS011;65009;44.762;21.516;2022-12-18T13:17:15;64.37;;;31.30;;
75486;SDS011;65009;44.762;21.516;2022-12-18T13:19:42;64.40;;;32.47;;
75486;SDS011;65009;44.762;21.516;2022-12-18T13:22:27;66.90;;;32.07;;
75486;SDS011;65009;44.762;21.516;2022-12-18T13:24:54;70.73;;;33.40;;
75486;SDS011;65009;44.762;21.516;2022-12-18T13:30:11;64.13;;;31.07;;
75486;SDS011;65009;44.762;21.516;2022-12-18T13:32:49;70.63;;;34.10;;
75486;SDS011;65009;44.762;21.516;2022-12-18T13:35:38;76.20;;;35.73;;
75486;SDS011;65009;44.762;21.516;2022-12-18T13:38:55;66.47;;;32.47;;
75486;SDS011;65009;44.762;21.516;2022-12-18T13:48:14;77.07;;;37.73;;
75486;SDS011;65009;44.762;21.516;2022-12-18T13:50:41;81.13;;;39.17;;
75486;SDS011;65009;44.762;21.516;2022-12-18T13:53:13;88.73;;;44.83;;
75486;SDS011;65009;44.762;21.516;2022-12-18T13:55:46;89.47;;;46.57;;
75486;SDS011;65009;44.762;21.516;2022-12-18T13:58:12;79.60;;;37.33;;
75486;SDS011;65009;44.762;21.516;2022-12-18T14:00:41;59.07;;;28.93;;
75486;SDS011;65009;44.762;21.516;2022-12-18T14:03:18;82.27;;;43.00;;
75486;SDS011;65009;44.762;21.516;2022-12-18T14:05:44;84.77;;;42.97;;
75486;SDS011;65009;44.762;21.516;2022-12-18T14:08:14;92.30;;;47.17;;
75486;SDS011;65009;44.762;21.516;2022-12-18T14:10:41;87.87;;;45.80;;
75486;SDS011;65009;44.762;21.516;2022-12-18T14:13:08;76.00;;;37.70;;
75486;SDS011;65009;44.762;21.516;2022-12-18T14:15:38;88.33;;;45.03;;
75486;SDS011;65009;44.762;21.516;2022-12-18T14:20:41;107.83;;;49.43;;
75486;SDS011;65009;44.762;21.516;2022-12-18T14:25:38;67.27;;;32.13;;
75486;SDS011;65009;44.762;21.516;2022-12-18T14:30:40;365.17;;;172.97;;
75486;SDS011;65009;44.762;21.516;2022-12-18T14:33:14;386.07;;;209.53;;
75486;SDS011;65009;44.762;21.516;2022-12-18T14:35:41;229.20;;;126.43;;
75486;SDS011;65009;44.762;21.516;2022-12-18T14:40:37;84.43;;;43.53;;
75486;SDS011;65009;44.762;21.516;2022-12-18T14:43:03;66.83;;;33.73;;
75486;SDS011;65009;44.762;21.516;2022-12-18T14:48:06;62.37;;;30.57;;
75486;SDS011;65009;44.762;21.516;2022-12-18T14:50:32;61.53;;;31.50;;
75486;SDS011;65009;44.762;21.516;2022-12-18T14:52:59;69.97;;;34.90;;
75486;SDS011;65009;44.762;21.516;2022-12-18T14:55:25;69.63;;;34.53;;
75486;SDS011;65009;44.762;21.516;2022-12-18T14:57:52;70.27;;;34.43;;
75486;SDS011;65009;44.762;21.516;2022-12-18T15:00:21;68.40;;;34.93;;
75486;SDS011;65009;44.762;21.516;2022-12-18T15:02:48;78.80;;;39.33;;
75486;SDS011;65009;44.762;21.516;2022-12-18T15:05:17;104.03;;;51.47;;
75486;SDS011;65009;44.762;21.516;2022-12-18T15:07:45;94.27;;;45.97;;
75486;SDS011;65009;44.762;21.516;2022-12-18T15:12:41;82.97;;;40.63;;
75486;SDS011;65009;44.762;21.516;2022-12-18T15:17:59;72.93;;;35.60;;
75486;SDS011;65009;44.762;21.516;2022-12-18T15:20:32;69.13;;;35.73;;
75486;SDS011;65009;44.762;21.516;2022-12-18T15:22:58;132.00;;;57.27;;
75486;SDS011;65009;44.762;21.516;2022-12-18T15:25:35;87.07;;;42.47;;
75486;SDS011;65009;44.762;21.516;2022-12-18T15:28:02;79.57;;;41.30;;
75486;SDS011;65009;44.762;21.516;2022-12-18T15:30:29;81.53;;;40.80;;
75486;SDS011;65009;44.762;21.516;2022-12-18T15:35:41;74.53;;;36.63;;
75486;SDS011;65009;44.762;21.516;2022-12-18T15:38:07;71.10;;;34.23;;
75486;SDS011;65009;44.762;21.516;2022-12-18T15:40:33;69.17;;;35.37;;
75486;SDS011;65009;44.762;21.516;2022-12-18T15:42:59;70.03;;;36.67;;
75486;SDS011;65009;44.762;21.516;2022-12-18T15:45:44;92.37;;;45.50;;
75486;SDS011;65009;44.762;21.516;2022-12-18T15:51:02;93.03;;;46.03;;
75486;SDS011;65009;44.762;21.516;2022-12-18T15:53:30;80.10;;;41.00;;
75486;SDS011;65009;44.762;21.516;2022-12-18T15:55:57;82.70;;;42.50;;
75486;SDS011;65009;44.762;21.516;2022-12-18T15:58:42;83.17;;;41.30;;
75486;SDS011;65009;44.762;21.516;2022-12-18T16:01:08;79.03;;;41.40;;
75486;SDS011;65009;44.762;21.516;2022-12-18T16:03:35;85.63;;;42.83;;
75486;SDS011;65009;44.762;21.516;2022-12-18T16:06:01;75.63;;;40.60;;
75486;SDS011;65009;44.762;21.516;2022-12-18T16:08:28;81.30;;;40.83;;
75486;SDS011;65009;44.762;21.516;2022-12-18T16:10:55;123.83;;;58.17;;
75486;SDS011;65009;44.762;21.516;2022-12-18T16:13:21;93.73;;;44.70;;
75486;SDS011;65009;44.762;21.516;2022-12-18T16:15:47;86.77;;;41.23;;